sensor_id;sensor_type;location;lat;lon;timestamp;P1;durP1;ratioP1;P2;durP2;ratioP2
13432;SDS011;6789;47.678;9.158;2024-03-23T00:56:44;7.00;;;4.30;;
13432;SDS011;6789;47.678;9.158;2024-03-23T01:01:35;7.30;;;4.40;;
13432;SDS011;6789;47.678;9.158;2024-03-23T01:06:26;6.10;;;4.23;;
13432;SDS011;6789;47.678;9.158;2024-03-23T01:11:16;7.67;;;4.23;;
13432;SDS011;6789;47.678;9.158;2024-03-23T01:16:07;6.53;;;3.77;;
13432;SDS011;6789;47.678;9.158;2024-03-23T01:20:58;5.50;;;3.67;;
13432;SDS011;6789;47.678;9.158;2024-03-23T01:25:52;5.80;;;3.80;;
13432;SDS011;6789;47.678;9.158;2024-03-23T01:30:44;4.80;;;3.60;;
13432;SDS011;6789;47.678;9.158;2024-03-23T01:35:35;5.63;;;3.70;;
13432;SDS011;6789;47.678;9.158;2024-03-23T01:40:26;8.30;;;3.80;;
13432;SDS011;6789;47.678;9.158;2024-03-23T01:45:21;5.90;;;4.07;;
13432;SDS011;6789;47.678;9.158;2024-03-23T01:50:13;6.30;;;3.50;;
13432;SDS011;6789;47.678;9.158;2024-03-23T01:55:04;7.37;;;3.80;;
13432;SDS011;6789;47.678;9.158;2024-03-23T01:59:55;6.63;;;3.90;;
13432;SDS011;6789;47.678;9.158;2024-03-23T02:04:47;4.93;;;3.07;;
13432;SDS011;6789;47.678;9.158;2024-03-23T02:09:37;5.90;;;3.20;;
13432;SDS011;6789;47.678;9.158;2024-03-23T02:14:28;3.67;;;2.87;;
13432;SDS011;6789;47.678;9.158;2024-03-23T02:19:19;9.30;;;3.30;;
13432;SDS011;6789;47.678;9.158;2024-03-23T02:24:10;6.20;;;3.93;;
13432;SDS011;6789;47.678;9.158;2024-03-23T02:29:01;9.60;;;4.40;;
13432;SDS011;6789;47.678;9.158;2024-03-23T02:33:52;6.60;;;4.00;;
13432;SDS011;6789;47.678;9.158;2024-03-23T02:38:42;9.37;;;3.63;;
13432;SDS011;6789;47.678;9.158;2024-03-23T02:43:33;7.70;;;3.37;;
13432;SDS011;6789;47.678;9.158;2024-03-23T02:48:24;5.40;;;3.43;;
13432;SDS011;6789;47.678;9.158;2024-03-23T02:53:15;6.17;;;3.30;;
13432;SDS011;6789;47.678;9.158;2024-03-23T02:58:06;4.80;;;3.40;;
13432;SDS011;6789;47.678;9.158;2024-03-23T03:02:56;6.90;;;4.07;;
13432;SDS011;6789;47.678;9.158;2024-03-23T03:07:47;7.80;;;4.30;;
13432;SDS011;6789;47.678;9.158;2024-03-23T03:12:38;4.43;;;3.30;;
13432;SDS011;6789;47.678;9.158;2024-03-23T03:17:30;5.43;;;2.93;;
13432;SDS011;6789;47.678;9.158;2024-03-23T03:22:21;4.80;;;3.47;;
13432;SDS011;6789;47.678;9.158;2024-03-23T03:27:13;5.20;;;3.03;;
13432;SDS011;6789;47.678;9.158;2024-03-23T03:32:04;4.97;;;2.77;;
13432;SDS011;6789;47.678;9.158;2024-03-23T03:36:55;5.80;;;2.90;;
13432;SDS011;6789;47.678;9.158;2024-03-23T03:41:47;4.20;;;2.33;;
13432;SDS011;6789;47.678;9.158;2024-03-23T03:46:37;4.97;;;2.70;;
13432;SDS011;6789;47.678;9.158;2024-03-23T03:51:28;4.73;;;2.60;;
13432;SDS011;6789;47.678;9.158;2024-03-23T03:56:19;6.40;;;2.90;;
13432;SDS011;6789;47.678;9.158;2024-03-23T04:01:10;6.03;;;3.00;;
13432;SDS011;6789;47.678;9.158;2024-03-23T04:06:01;5.17;;;3.10;;
13432;SDS011;6789;47.678;9.158;2024-03-23T04:10:52;5.00;;;3.43;;
13432;SDS011;6789;47.678;9.158;2024-03-23T04:15:43;6.37;;;3.67;;
13432;SDS011;6789;47.678;9.158;2024-03-23T04:20:34;6.77;;;3.33;;
13432;SDS011;6789;47.678;9.158;2024-03-23T04:25:24;6.73;;;3.13;;
13432;SDS011;6789;47.678;9.158;2024-03-23T04:30:15;5.30;;;3.10;;
13432;SDS011;6789;47.678;9.158;2024-03-23T04:35:06;3.80;;;2.90;;
13432;SDS011;6789;47.678;9.158;2024-03-23T04:40:02;4.70;;;2.90;;
13432;SDS011;6789;47.678;9.158;2024-03-23T04:44:54;5.80;;;2.93;;
13432;SDS011;6789;47.678;9.158;2024-03-23T04:49:45;3.97;;;3.00;;
13432;SDS011;6789;47.678;9.158;2024-03-23T04:54:36;7.60;;;2.87;;
13432;SDS011;6789;47.678;9.158;2024-03-23T04:59:44;3.50;;;2.63;;
13432;SDS011;6789;47.678;9.158;2024-03-23T05:04:57;3.93;;;2.50;;
13432;SDS011;6789;47.678;9.158;2024-03-23T05:09:48;4.27;;;2.60;;
13432;SDS011;6789;47.678;9.158;2024-03-23T05:14:39;4.73;;;3.07;;
13432;SDS011;6789;47.678;9.158;2024-03-23T05:19:30;4.80;;;2.40;;
13432;SDS011;6789;47.678;9.158;2024-03-23T05:24:21;4.00;;;2.43;;
13432;SDS011;6789;47.678;9.158;2024-03-23T05:29:12;2.93;;;2.40;;
13432;SDS011;6789;47.678;9.158;2024-03-23T05:34:03;5.13;;;2.33;;
13432;SDS011;6789;47.678;9.158;2024-03-23T05:38:54;6.73;;;2.30;;
13432;SDS011;6789;47.678;9.158;2024-03-23T05:43:45;4.10;;;2.20;;
13432;SDS011;6789;47.678;9.158;2024-03-23T05:48:36;2.10;;;1.77;;
13432;SDS011;6789;47.678;9.158;2024-03-23T05:53:27;3.00;;;2.20;;
13432;SDS011;6789;47.678;9.158;2024-03-23T05:58:21;4.00;;;2.10;;
13432;SDS011;6789;47.678;9.158;2024-03-23T06:03:12;3.43;;;2.50;;
13432;SDS011;6789;47.678;9.158;2024-03-23T06:08:03;4.60;;;2.77;;
13432;SDS011;6789;47.678;9.158;2024-03-23T06:13:20;3.13;;;2.00;;
13432;SDS011;6789;47.678;9.158;2024-03-23T06:18:14;2.77;;;1.83;;
13432;SDS011;6789;47.678;9.158;2024-03-23T06:23:05;3.27;;;2.10;;
13432;SDS011;6789;47.678;9.158;2024-03-23T06:27:56;2.47;;;2.00;;
13432;SDS011;6789;47.678;9.158;2024-03-23T06:32:48;3.00;;;2.70;;
13432;SDS011;6789;47.678;9.158;2024-03-23T06:37:39;3.70;;;2.60;;
13432;SDS011;6789;47.678;9.158;2024-03-23T06:42:31;4.27;;;2.97;;
13432;SDS011;6789;47.678;9.158;2024-03-23T06:47:22;3.27;;;2.90;;
13432;SDS011;6789;47.678;9.158;2024-03-23T06:52:12;4.47;;;2.50;;
13432;SDS011;6789;47.678;9.158;2024-03-23T06:57:08;3.60;;;2.40;;
13432;SDS011;6789;47.678;9.158;2024-03-23T07:01:59;8.40;;;2.70;;
13432;SDS011;6789;47.678;9.158;2024-03-23T07:06:50;4.90;;;2.80;;
13432;SDS011;6789;47.678;9.158;2024-03-23T07:11:42;4.30;;;2.90;;
13432;SDS011;6789;47.678;9.158;2024-03-23T07:16:32;4.23;;;2.60;;
13432;SDS011;6789;47.678;9.158;2024-03-23T07:21:23;3.43;;;2.60;;
13432;SDS011;6789;47.678;9.158;2024-03-23T07:26:14;3.23;;;2.73;;
13432;SDS011;6789;47.678;9.158;2024-03-23T07:31:06;3.47;;;2.73;;
13432;SDS011;6789;47.678;9.158;2024-03-23T07:35:59;5.00;;;3.13;;
13432;SDS011;6789;47.678;9.158;2024-03-23T07:40:50;5.10;;;3.40;;
13432;SDS011;6789;47.678;9.158;2024-03-23T07:45:50;5.20;;;3.10;;
13432;SDS011;6789;47.678;9.158;2024-03-23T07:50:43;4.60;;;3.10;;
13432;SDS011;6789;47.678;9.158;2024-03-23T07:55:34;4.33;;;3.17;;
13432;SDS011;6789;47.678;9.158;2024-03-23T08:00:24;4.43;;;3.17;;
13432;SDS011;6789;47.678;9.158;2024-03-23T08:05:15;5.43;;;2.97;;
13432;SDS011;6789;47.678;9.158;2024-03-23T08:10:06;3.30;;;3.00;;
13432;SDS011;6789;47.678;9.158;2024-03-23T08:14:57;4.40;;;3.33;;
13432;SDS011;6789;47.678;9.158;2024-03-23T08:19:48;5.27;;;3.30;;
13432;SDS011;6789;47.678;9.158;2024-03-23T08:24:39;1.00;;;0.90;;
13432;SDS011;6789;47.678;9.158;2024-03-23T08:29:37;1.73;;;0.30;;
13432;SDS011;6789;47.678;9.158;2024-03-23T08:34:28;0.33;;;0.10;;
13432;SDS011;6789;47.678;9.158;2024-03-23T08:39:19;0.57;;;0.20;;
13432;SDS011;6789;47.678;9.158;2024-03-23T08:44:10;0.10;;;0.10;;
13432;SDS011;6789;47.678;9.158;2024-03-23T08:49:00;0.40;;;0.30;;
13432;SDS011;6789;47.678;9.158;2024-03-23T08:53:51;0.57;;;0.30;;
13432;SDS011;6789;47.678;9.158;2024-03-23T08:58:42;0.20;;;0.20;;
13432;SDS011;6789;47.678;9.158;2024-03-23T09:03:33;0.50;;;0.10;;
13432;SDS011;6789;47.678;9.158;2024-03-23T09:08:25;0.20;;;0.20;;
13432;SDS011;6789;47.678;9.158;2024-03-23T09:13:16;0.10;;;0.10;;
13432;SDS011;6789;47.678;9.158;2024-03-23T09:18:07;0.93;;;0.20;;
13432;SDS011;6789;47.678;9.158;2024-03-23T09:22:57;0.10;;;0.07;;
13432;SDS011;6789;47.678;9.158;2024-03-23T09:27:49;0.10;;;0.10;;
13432;SDS011;6789;47.678;9.158;2024-03-23T09:32:42;0.40;;;0.37;;
13432;SDS011;6789;47.678;9.158;2024-03-23T09:37:34;0.57;;;0.10;;
13432;SDS011;6789;47.678;9.158;2024-03-23T09:42:25;0.20;;;0.10;;
13432;SDS011;6789;47.678;9.158;2024-03-23T09:47:16;0.30;;;0.20;;
13432;SDS011;6789;47.678;9.158;2024-03-23T09:52:08;1.27;;;0.13;;
13432;SDS011;6789;47.678;9.158;2024-03-23T09:56:59;0.73;;;0.20;;
13432;SDS011;6789;47.678;9.158;2024-03-23T10:01:49;0.13;;;0.13;;
13432;SDS011;6789;47.678;9.158;2024-03-23T10:06:40;1.40;;;0.40;;
13432;SDS011;6789;47.678;9.158;2024-03-23T10:11:31;0.80;;;0.40;;
13432;SDS011;6789;47.678;9.158;2024-03-23T10:16:23;0.40;;;0.30;;
13432;SDS011;6789;47.678;9.158;2024-03-23T10:21:15;1.17;;;0.30;;
13432;SDS011;6789;47.678;9.158;2024-03-23T10:26:16;2.37;;;0.30;;
13432;SDS011;6789;47.678;9.158;2024-03-23T10:31:11;0.20;;;0.20;;
13432;SDS011;6789;47.678;9.158;2024-03-23T10:36:03;0.60;;;0.40;;
13432;SDS011;6789;47.678;9.158;2024-03-23T10:40:57;1.53;;;0.50;;
13432;SDS011;6789;47.678;9.158;2024-03-23T10:45:50;1.33;;;0.40;;
13432;SDS011;6789;47.678;9.158;2024-03-23T10:50:41;1.10;;;0.57;;
13432;SDS011;6789;47.678;9.158;2024-03-23T10:55:32;1.13;;;0.53;;
13432;SDS011;6789;47.678;9.158;2024-03-23T11:00:24;0.60;;;0.40;;
13432;SDS011;6789;47.678;9.158;2024-03-23T11:10:26;0.93;;;0.60;;
13432;SDS011;6789;47.678;9.158;2024-03-23T11:15:19;2.07;;;0.50;;
13432;SDS011;6789;47.678;9.158;2024-03-23T11:20:10;1.23;;;0.50;;
13432;SDS011;6789;47.678;9.158;2024-03-23T11:25:01;3.77;;;1.40;;
13432;SDS011;6789;47.678;9.158;2024-03-23T11:30:14;3.60;;;1.30;;
13432;SDS011;6789;47.678;9.158;2024-03-23T11:35:07;3.10;;;1.30;;
13432;SDS011;6789;47.678;9.158;2024-03-23T11:40:00;3.70;;;1.30;;
13432;SDS011;6789;47.678;9.158;2024-03-23T11:44:51;4.03;;;1.63;;
13432;SDS011;6789;47.678;9.158;2024-03-23T11:49:42;5.70;;;1.37;;
13432;SDS011;6789;47.678;9.158;2024-03-23T11:54:33;2.63;;;1.00;;
13432;SDS011;6789;47.678;9.158;2024-03-23T12:04:30;5.07;;;1.50;;
13432;SDS011;6789;47.678;9.158;2024-03-23T12:09:22;6.27;;;1.80;;
13432;SDS011;6789;47.678;9.158;2024-03-23T12:14:14;5.03;;;1.27;;
13432;SDS011;6789;47.678;9.158;2024-03-23T12:19:05;5.37;;;1.27;;
13432;SDS011;6789;47.678;9.158;2024-03-23T12:23:56;6.67;;;1.53;;
13432;SDS011;6789;47.678;9.158;2024-03-23T12:28:47;3.63;;;1.07;;
13432;SDS011;6789;47.678;9.158;2024-03-23T12:33:38;6.93;;;1.37;;
13432;SDS011;6789;47.678;9.158;2024-03-23T12:38:28;5.47;;;1.10;;
13432;SDS011;6789;47.678;9.158;2024-03-23T12:43:19;5.27;;;1.27;;
13432;SDS011;6789;47.678;9.158;2024-03-23T12:48:10;4.87;;;1.30;;
13432;SDS011;6789;47.678;9.158;2024-03-23T12:53:01;2.97;;;0.90;;
13432;SDS011;6789;47.678;9.158;2024-03-23T12:57:52;1.50;;;0.50;;
13432;SDS011;6789;47.678;9.158;2024-03-23T13:02:43;3.03;;;0.40;;
13432;SDS011;6789;47.678;9.158;2024-03-23T13:07:34;0.70;;;0.30;;
13432;SDS011;6789;47.678;9.158;2024-03-23T13:28:15;1.73;;;0.40;;
13432;SDS011;6789;47.678;9.158;2024-03-23T13:33:08;1.83;;;0.80;;
13432;SDS011;6789;47.678;9.158;2024-03-23T13:38:00;2.37;;;0.50;;
13432;SDS011;6789;47.678;9.158;2024-03-23T13:42:51;2.27;;;0.77;;
13432;SDS011;6789;47.678;9.158;2024-03-23T13:47:42;2.10;;;0.67;;
13432;SDS011;6789;47.678;9.158;2024-03-23T13:52:32;2.60;;;0.70;;
13432;SDS011;6789;47.678;9.158;2024-03-23T13:57:24;6.00;;;1.83;;
13432;SDS011;6789;47.678;9.158;2024-03-23T14:02:16;5.80;;;1.80;;
13432;SDS011;6789;47.678;9.158;2024-03-23T14:07:07;5.60;;;1.30;;
13432;SDS011;6789;47.678;9.158;2024-03-23T14:11:59;3.13;;;0.87;;
13432;SDS011;6789;47.678;9.158;2024-03-23T14:16:50;3.20;;;1.10;;
13432;SDS011;6789;47.678;9.158;2024-03-23T14:21:41;5.53;;;1.40;;
13432;SDS011;6789;47.678;9.158;2024-03-23T14:26:32;3.70;;;1.30;;
13432;SDS011;6789;47.678;9.158;2024-03-23T14:31:23;4.27;;;1.13;;
13432;SDS011;6789;47.678;9.158;2024-03-23T14:36:15;5.37;;;1.20;;
13432;SDS011;6789;47.678;9.158;2024-03-23T14:41:07;3.87;;;1.00;;
13432;SDS011;6789;47.678;9.158;2024-03-23T14:46:08;3.30;;;0.90;;
13432;SDS011;6789;47.678;9.158;2024-03-23T14:51:04;9.53;;;1.40;;
13432;SDS011;6789;47.678;9.158;2024-03-23T14:56:11;4.33;;;1.33;;
13432;SDS011;6789;47.678;9.158;2024-03-23T15:01:06;2.80;;;0.97;;
13432;SDS011;6789;47.678;9.158;2024-03-23T15:06:01;4.63;;;1.20;;
13432;SDS011;6789;47.678;9.158;2024-03-23T15:10:52;3.87;;;1.00;;
13432;SDS011;6789;47.678;9.158;2024-03-23T15:15:44;4.40;;;1.10;;
13432;SDS011;6789;47.678;9.158;2024-03-23T15:20:35;3.57;;;1.10;;
13432;SDS011;6789;47.678;9.158;2024-03-23T15:25:26;3.50;;;1.20;;
13432;SDS011;6789;47.678;9.158;2024-03-23T15:30:17;3.17;;;0.80;;
13432;SDS011;6789;47.678;9.158;2024-03-23T15:35:08;5.77;;;1.10;;
13432;SDS011;6789;47.678;9.158;2024-03-23T15:39:59;1.80;;;0.80;;
13432;SDS011;6789;47.678;9.158;2024-03-23T15:44:49;4.50;;;1.00;;
13432;SDS011;6789;47.678;9.158;2024-03-23T15:49:40;3.40;;;0.97;;
13432;SDS011;6789;47.678;9.158;2024-03-23T15:54:32;1.73;;;0.70;;
13432;SDS011;6789;47.678;9.158;2024-03-23T15:59:23;2.03;;;0.77;;
13432;SDS011;6789;47.678;9.158;2024-03-23T16:04:14;3.07;;;0.90;;
13432;SDS011;6789;47.678;9.158;2024-03-23T16:09:05;3.40;;;0.80;;
13432;SDS011;6789;47.678;9.158;2024-03-23T16:13:56;1.07;;;0.57;;
13432;SDS011;6789;47.678;9.158;2024-03-23T16:18:47;2.33;;;1.00;;
13432;SDS011;6789;47.678;9.158;2024-03-23T16:23:38;3.73;;;0.63;;
13432;SDS011;6789;47.678;9.158;2024-03-23T16:28:29;1.57;;;0.40;;
13432;SDS011;6789;47.678;9.158;2024-03-23T16:33:25;5.83;;;1.00;;
13432;SDS011;6789;47.678;9.158;2024-03-23T16:38:19;3.50;;;0.80;;
13432;SDS011;6789;47.678;9.158;2024-03-23T16:43:10;3.50;;;0.73;;
13432;SDS011;6789;47.678;9.158;2024-03-23T16:48:01;2.20;;;0.53;;
13432;SDS011;6789;47.678;9.158;2024-03-23T16:52:53;3.13;;;0.70;;
13432;SDS011;6789;47.678;9.158;2024-03-23T16:57:44;3.70;;;0.80;;
13432;SDS011;6789;47.678;9.158;2024-03-23T17:02:35;3.00;;;1.00;;
13432;SDS011;6789;47.678;9.158;2024-03-23T17:07:28;3.23;;;1.00;;
13432;SDS011;6789;47.678;9.158;2024-03-23T17:12:21;4.03;;;0.90;;
13432;SDS011;6789;47.678;9.158;2024-03-23T17:17:12;3.07;;;0.90;;
13432;SDS011;6789;47.678;9.158;2024-03-23T17:22:03;2.40;;;0.70;;
13432;SDS011;6789;47.678;9.158;2024-03-23T17:26:54;3.20;;;0.93;;
13432;SDS011;6789;47.678;9.158;2024-03-23T17:31:45;3.97;;;0.90;;
13432;SDS011;6789;47.678;9.158;2024-03-23T17:36:36;4.17;;;0.90;;
13432;SDS011;6789;47.678;9.158;2024-03-23T17:41:28;1.93;;;0.80;;
13432;SDS011;6789;47.678;9.158;2024-03-23T17:46:19;4.40;;;1.20;;
13432;SDS011;6789;47.678;9.158;2024-03-23T17:51:10;4.23;;;0.60;;
13432;SDS011;6789;47.678;9.158;2024-03-23T17:56:03;2.93;;;0.80;;
13432;SDS011;6789;47.678;9.158;2024-03-23T18:00:55;4.30;;;0.90;;
13432;SDS011;6789;47.678;9.158;2024-03-23T18:05:46;3.27;;;0.63;;
13432;SDS011;6789;47.678;9.158;2024-03-23T18:10:37;5.60;;;0.70;;
13432;SDS011;6789;47.678;9.158;2024-03-23T18:15:27;3.83;;;0.90;;
13432;SDS011;6789;47.678;9.158;2024-03-23T18:20:18;2.03;;;0.60;;
13432;SDS011;6789;47.678;9.158;2024-03-23T18:25:09;0.70;;;0.53;;
13432;SDS011;6789;47.678;9.158;2024-03-23T18:30:01;1.07;;;0.50;;
13432;SDS011;6789;47.678;9.158;2024-03-23T18:34:51;1.50;;;0.60;;
13432;SDS011;6789;47.678;9.158;2024-03-23T18:39:42;0.40;;;0.30;;
13432;SDS011;6789;47.678;9.158;2024-03-23T18:44:33;1.50;;;0.60;;
13432;SDS011;6789;47.678;9.158;2024-03-23T18:49:24;1.07;;;0.60;;
13432;SDS011;6789;47.678;9.158;2024-03-23T18:54:15;1.73;;;0.70;;
13432;SDS011;6789;47.678;9.158;2024-03-23T18:59:06;2.53;;;0.57;;
13432;SDS011;6789;47.678;9.158;2024-03-23T19:03:56;1.70;;;0.57;;
13432;SDS011;6789;47.678;9.158;2024-03-23T19:08:47;2.57;;;0.80;;
13432;SDS011;6789;47.678;9.158;2024-03-23T19:13:38;1.47;;;0.40;;
13432;SDS011;6789;47.678;9.158;2024-03-23T19:18:29;0.63;;;0.37;;
13432;SDS011;6789;47.678;9.158;2024-03-23T19:23:22;3.60;;;0.50;;
13432;SDS011;6789;47.678;9.158;2024-03-23T19:28:15;0.60;;;0.43;;
13432;SDS011;6789;47.678;9.158;2024-03-23T19:33:11;1.87;;;0.47;;
13432;SDS011;6789;47.678;9.158;2024-03-23T19:38:17;1.27;;;0.50;;
13432;SDS011;6789;47.678;9.158;2024-03-23T19:43:08;2.20;;;0.50;;
13432;SDS011;6789;47.678;9.158;2024-03-23T19:47:59;3.47;;;0.47;;
13432;SDS011;6789;47.678;9.158;2024-03-23T19:52:50;1.13;;;0.50;;
13432;SDS011;6789;47.678;9.158;2024-03-23T19:57:41;1.00;;;0.50;;
13432;SDS011;6789;47.678;9.158;2024-03-23T20:02:33;2.93;;;1.10;;
13432;SDS011;6789;47.678;9.158;2024-03-23T20:07:24;4.73;;;0.73;;
13432;SDS011;6789;47.678;9.158;2024-03-23T20:12:15;2.30;;;1.07;;
13432;SDS011;6789;47.678;9.158;2024-03-23T20:17:06;0.87;;;0.50;;
13432;SDS011;6789;47.678;9.158;2024-03-23T20:21:56;2.67;;;0.70;;
13432;SDS011;6789;47.678;9.158;2024-03-23T20:26:47;3.30;;;0.80;;
13432;SDS011;6789;47.678;9.158;2024-03-23T20:31:38;8.50;;;1.47;;
13432;SDS011;6789;47.678;9.158;2024-03-23T20:36:29;1.90;;;0.83;;
13432;SDS011;6789;47.678;9.158;2024-03-23T20:41:20;1.67;;;0.67;;
13432;SDS011;6789;47.678;9.158;2024-03-23T20:46:12;0.60;;;0.50;;
13432;SDS011;6789;47.678;9.158;2024-03-23T20:51:03;1.90;;;0.57;;
13432;SDS011;6789;47.678;9.158;2024-03-23T20:55:55;6.57;;;3.20;;
13432;SDS011;6789;47.678;9.158;2024-03-23T21:00:47;0.93;;;0.70;;
13432;SDS011;6789;47.678;9.158;2024-03-23T21:05:39;1.37;;;0.70;;
13432;SDS011;6789;47.678;9.158;2024-03-23T21:10:30;1.57;;;0.70;;
13432;SDS011;6789;47.678;9.158;2024-03-23T21:15:21;2.10;;;0.60;;
13432;SDS011;6789;47.678;9.158;2024-03-23T21:20:12;1.43;;;0.40;;
13432;SDS011;6789;47.678;9.158;2024-03-23T21:25:03;2.17;;;0.80;;
13432;SDS011;6789;47.678;9.158;2024-03-23T21:29:54;0.40;;;0.30;;
13432;SDS011;6789;47.678;9.158;2024-03-23T21:34:45;1.53;;;0.40;;
13432;SDS011;6789;47.678;9.158;2024-03-23T21:39:36;1.07;;;0.50;;
13432;SDS011;6789;47.678;9.158;2024-03-23T21:44:27;1.40;;;0.40;;
13432;SDS011;6789;47.678;9.158;2024-03-23T21:49:18;1.23;;;0.67;;
13432;SDS011;6789;47.678;9.158;2024-03-23T21:54:08;1.30;;;0.90;;
13432;SDS011;6789;47.678;9.158;2024-03-23T21:59:00;2.43;;;0.60;;
13432;SDS011;6789;47.678;9.158;2024-03-23T22:03:51;1.67;;;0.60;;
13432;SDS011;6789;47.678;9.158;2024-03-23T22:08:42;0.93;;;0.67;;
13432;SDS011;6789;47.678;9.158;2024-03-23T22:13:33;1.40;;;0.70;;
13432;SDS011;6789;47.678;9.158;2024-03-23T22:18:24;1.20;;;0.97;;
13432;SDS011;6789;47.678;9.158;2024-03-23T22:23:15;3.77;;;1.00;;
13432;SDS011;6789;47.678;9.158;2024-03-23T22:28:06;1.00;;;0.80;;
13432;SDS011;6789;47.678;9.158;2024-03-23T22:32:57;2.43;;;1.10;;
13432;SDS011;6789;47.678;9.158;2024-03-23T22:37:49;2.63;;;0.93;;
13432;SDS011;6789;47.678;9.158;2024-03-23T22:42:40;2.57;;;1.07;;
13432;SDS011;6789;47.678;9.158;2024-03-23T22:47:31;1.00;;;0.90;;
13432;SDS011;6789;47.678;9.158;2024-03-23T22:52:23;1.67;;;0.73;;
13432;SDS011;6789;47.678;9.158;2024-03-23T22:57:13;0.63;;;0.57;;
13432;SDS011;6789;47.678;9.158;2024-03-23T23:13:28;1.90;;;0.63;;
13432;SDS011;6789;47.678;9.158;2024-03-23T23:18:19;0.80;;;0.50;;
13432;SDS011;6789;47.678;9.158;2024-03-23T23:23:12;1.67;;;0.60;;
13432;SDS011;6789;47.678;9.158;2024-03-23T23:28:03;1.90;;;1.10;;
13432;SDS011;6789;47.678;9.158;2024-03-23T23:32:54;2.27;;;0.77;;
13432;SDS011;6789;47.678;9.158;2024-03-23T23:37:45;1.27;;;0.50;;
13432;SDS011;6789;47.678;9.158;2024-03-23T23:42:36;0.60;;;0.37;;
13432;SDS011;6789;47.678;9.158;2024-03-23T23:47:26;0.97;;;0.40;;
13432;SDS011;6789;47.678;9.158;2024-03-23T23:52:17;1.70;;;0.60;;
13432;SDS011;6789;47.678;9.158;2024-03-23T23:57:08;1.90;;;0.50;;
